Time;durP1;ratioP1;P1;durP2;ratioP2;P2;SDS_P1;SDS_P2;PMS_P1;PMS_P2;Temp;Humidity;BMP_temperature;BMP_pressure;BME280_temperature;BME280_humidity;BME280_pressure;Samples;Min_cycle;Max_cycle;Signal;HPM_P1;HPM_P2
2022/11/10 00:01:51;;;;;;;3.88;3.08;;;18.60;73.30;;;;;;5966237;24;20159;-85
2022/11/10 00:04:17;;;;;;;5.70;2.65;;;18.60;73.40;;;;;;5964870;24;20528;-86
2022/11/10 00:06:49;;;;;;;5.60;2.53;;;18.60;73.30;;;;;;5989249;24;20187;-86
2022/11/10 00:09:20;;;;;;;4.38;2.63;;;18.60;73.40;;;;;;5942011;24;20247;-85
2022/11/10 00:11:51;;;;;;;3.75;2.60;;;18.60;73.60;;;;;;5941573;24;20155;-86
2022/11/10 00:17:01;;;;;;;3.22;2.63;;;18.60;73.30;;;;;;5989036;24;20139;-86
2022/11/10 00:19:33;;;;;;;4.18;2.33;;;18.60;73.30;;;;;;5966377;24;20182;-86
2022/11/10 00:22:00;;;;;;;4.50;2.72;;;18.60;73.30;;;;;;5965238;24;20156;-86
2022/11/10 00:24:30;;;;;;;3.38;2.65;;;18.60;73.40;;;;;;5988820;23;20168;-86
2022/11/10 00:26:56;;;;;;;3.58;2.40;;;18.60;73.50;;;;;;5965464;24;20275;-86
2022/11/10 00:29:25;;;;;;;3.78;2.40;;;18.60;73.70;;;;;;5967549;24;20151;-86
2022/11/10 00:31:51;;;;;;;3.38;2.60;;;18.60;73.60;;;;;;5967006;24;20160;-86
2022/11/10 00:34:17;;;;;;;4.85;2.50;;;18.50;73.50;;;;;;5989213;24;20159;-85
2022/11/10 00:36:43;;;;;;;4.07;2.70;;;18.50;73.70;;;;;;5988985;24;20574;-86
2022/11/10 00:39:13;;;;;;;4.93;2.92;;;18.50;73.70;;;;;;5989909;24;20165;-86
2022/11/10 00:41:43;;;;;;;3.92;2.58;;;18.50;73.80;;;;;;5942484;24;20159;-86
2022/11/10 00:44:09;;;;;;;4.22;2.60;;;18.50;74.00;;;;;;5965150;23;20163;-86
2022/11/10 00:46:39;;;;;;;3.15;2.35;;;18.50;74.00;;;;;;5965231;24;20501;-86
2022/11/10 00:49:05;;;;;;;4.57;2.65;;;18.50;73.70;;;;;;5941688;23;20193;-86
2022/11/10 00:51:30;;;;;;;3.45;2.38;;;18.50;73.70;;;;;;5988202;23;20219;-86
2022/11/10 00:54:00;;;;;;;5.45;2.58;;;18.50;73.80;;;;;;5964680;24;20160;-85
2022/11/10 00:56:26;;;;;;;2.80;2.17;;;18.50;73.80;;;;;;5963812;24;20160;-86
2022/11/10 00:58:56;;;;;;;4.68;2.28;;;18.50;73.80;;;;;;5988230;23;20268;-86
2022/11/10 01:01:24;;;;;;;3.78;2.55;;;18.50;73.70;;;;;;5917565;24;20264;-85
2022/11/10 01:03:54;;;;;;;4.57;2.53;;;18.50;74.00;;;;;;5987347;24;20139;-86
2022/11/10 01:06:25;;;;;;;3.75;2.80;;;18.50;74.00;;;;;;5940935;24;20550;-85
2022/11/10 01:08:51;;;;;;;3.75;2.65;;;18.50;73.80;;;;;;5964364;24;20161;-86
2022/11/10 01:11:24;;;;;;;3.17;2.60;;;18.50;73.70;;;;;;5987314;24;20698;-86
2022/11/10 01:13:55;;;;;;;3.65;2.42;;;18.50;73.90;;;;;;5941562;23;20164;-86
2022/11/10 01:16:27;;;;;;;2.60;2.38;;;18.50;73.80;;;;;;5963812;24;20159;-86
2022/11/10 01:18:56;;;;;;;4.25;3.00;;;18.40;73.90;;;;;;5941103;24;20245;-86
2022/11/10 01:21:26;;;;;;;4.32;2.55;;;18.50;73.90;;;;;;5987292;23;20591;-86
2022/11/10 01:23:56;;;;;;;5.00;2.78;;;18.50;74.00;;;;;;5963184;24;20159;-86
2022/11/10 01:26:22;;;;;;;2.92;2.40;;;18.40;74.00;;;;;;5963172;24;20179;-86
2022/11/10 01:28:48;;;;;;;4.65;2.30;;;18.40;74.10;;;;;;5988164;24;20163;-85
2022/11/10 01:31:16;;;;;;;5.28;2.70;;;18.40;73.90;;;;;;5988861;24;20188;-86
2022/11/10 01:33:46;;;;;;;2.95;2.40;;;18.50;74.00;;;;;;5987050;23;20148;-85
2022/11/10 01:36:16;;;;;;;3.85;2.50;;;18.50;74.00;;;;;;5940345;24;20162;-86
2022/11/10 01:38:42;;;;;;;3.47;2.60;;;18.50;73.70;;;;;;5917564;24;20159;-86
2022/11/10 01:41:10;;;;;;;3.30;2.42;;;18.50;74.00;;;;;;5986809;24;20148;-86
2022/11/10 01:43:41;;;;;;;4.88;2.45;;;18.40;73.80;;;;;;5963527;24;20500;-86
2022/11/10 01:46:09;;;;;;;3.75;2.63;;;18.50;73.80;;;;;;5939292;23;20162;-86
2022/11/10 01:48:43;;;;;;;3.92;2.83;;;18.50;73.80;;;;;;5987327;23;20152;-85
2022/11/10 01:51:15;;;;;;;5.15;2.47;;;18.40;74.40;;;;;;5987352;23;20282;-86
2022/11/10 01:53:42;;;;;;;3.22;2.47;;;18.50;73.70;;;;;;5987426;23;20148;-86
2022/11/10 01:56:08;;;;;;;3.03;2.30;;;18.50;73.90;;;;;;5963697;24;20151;-86
2022/11/10 01:58:38;;;;;;;3.63;2.55;;;18.50;73.70;;;;;;5987269;24;20143;-85
2022/11/10 02:01:06;;;;;;;2.90;2.33;;;18.50;73.70;;;;;;5987702;23;20243;-86
2022/11/10 02:03:47;;;;;;;5.13;2.58;;;18.50;73.80;;;;;;5987221;23;20227;-86
2022/11/10 02:06:13;;;;;;;6.55;2.70;;;18.40;74.10;;;;;;5964639;24;20161;-86
2022/11/10 02:08:39;;;;;;;4.28;2.70;;;18.40;74.10;;;;;;5987251;24;20158;-86
2022/11/10 02:11:05;;;;;;;3.83;2.58;;;18.40;73.60;;;;;;5986689;24;20136;-85
2022/11/10 02:13:34;;;;;;;3.72;2.58;;;18.40;73.80;;;;;;5987183;24;20140;-86
2022/11/10 02:16:00;;;;;;;2.85;2.50;;;18.40;73.70;;;;;;5963395;23;20163;-86
2022/11/10 02:18:30;;;;;;;4.88;2.70;;;18.40;73.90;;;;;;5986562;24;20590;-86
2022/11/10 02:21:02;;;;;;;5.30;2.40;;;18.40;73.70;;;;;;5939935;24;20473;-85
2022/11/10 02:23:51;;;;;;;4.70;2.45;;;18.40;73.70;;;;;;5940016;24;20155;-86
2022/11/10 02:26:21;;;;;;;3.75;2.67;;;18.40;73.80;;;;;;5986903;23;20151;-86
2022/11/10 02:28:51;;;;;;;2.72;2.53;;;18.40;73.90;;;;;;5986997;24;20519;-86
2022/11/10 02:31:17;;;;;;;6.35;2.75;;;18.40;73.60;;;;;;5962772;24;20175;-85
2022/11/10 02:33:46;;;;;;;3.25;2.38;;;18.40;73.50;;;;;;5989109;24;20166;-86
2022/11/10 02:36:18;;;;;;;5.18;2.70;;;18.50;73.90;;;;;;5962738;24;20227;-86
2022/11/10 02:38:44;;;;;;;3.60;2.80;;;18.40;73.60;;;;;;5962576;24;20599;-86
2022/11/10 02:41:14;;;;;;;4.60;3.03;;;18.50;73.80;;;;;;5988431;24;20472;-86
2022/11/10 02:43:40;;;;;;;3.67;2.42;;;18.40;74.40;;;;;;5940174;24;20182;-86
2022/11/10 02:46:06;;;;;;;3.63;2.35;;;18.40;73.50;;;;;;5988232;24;20560;-86
2022/11/10 02:48:36;;;;;;;2.65;2.33;;;18.50;73.70;;;;;;5987665;24;20221;-86
2022/11/10 02:51:02;;;;;;;3.00;2.60;;;18.40;73.60;;;;;;5962776;24;20274;-86
2022/11/10 02:53:32;;;;;;;2.72;2.50;;;18.40;73.60;;;;;;5963738;24;20152;-86
2022/11/10 02:55:58;;;;;;;4.18;2.70;;;18.40;73.30;;;;;;5963423;23;20158;-86
2022/11/10 02:58:24;;;;;;;3.45;2.60;;;18.40;74.00;;;;;;5987452;24;20144;-86
2022/11/10 03:00:53;;;;;;;3.25;2.50;;;18.40;73.60;;;;;;5987055;24;20645;-86
2022/11/10 03:03:19;;;;;;;3.17;2.70;;;18.40;73.70;;;;;;5940608;24;20159;-86
2022/11/10 03:05:45;;;;;;;3.28;2.53;;;18.40;73.40;;;;;;5963690;24;20159;-86
2022/11/10 03:08:15;;;;;;;3.95;2.63;;;18.40;73.60;;;;;;5986469;24;20183;-86
2022/11/10 03:10:41;;;;;;;5.43;2.60;;;18.50;73.30;;;;;;5940279;24;20183;-86
2022/11/10 03:13:07;;;;;;;4.00;2.60;;;18.50;73.20;;;;;;5986596;24;20603;-86
2022/11/10 03:15:36;;;;;;;3.65;2.55;;;18.40;73.00;;;;;;5987810;24;20143;-86
2022/11/10 03:18:03;;;;;;;3.92;2.67;;;18.40;73.50;;;;;;5939656;24;20165;-86
2022/11/10 03:20:29;;;;;;;4.53;2.65;;;18.50;73.60;;;;;;5986766;24;20219;-86
2022/11/10 03:23:03;;;;;;;2.92;2.30;;;18.40;73.40;;;;;;5988576;24;20173;-86
2022/11/10 03:25:29;;;;;;;4.05;2.50;;;18.40;73.70;;;;;;5962634;24;20167;-86
2022/11/10 03:27:55;;;;;;;3.15;2.30;;;18.40;73.40;;;;;;5986382;23;20187;-86
2022/11/10 03:30:21;;;;;;;3.67;2.20;;;18.40;73.90;;;;;;5987501;24;20140;-85
2022/11/10 03:32:50;;;;;;;2.67;2.42;;;18.50;73.80;;;;;;5987157;24;20143;-86
2022/11/10 03:35:16;;;;;;;4.05;2.35;;;18.40;73.70;;;;;;5940094;23;20194;-86
2022/11/10 03:37:43;;;;;;;5.15;2.78;;;18.40;74.20;;;;;;5963947;24;20155;-86
2022/11/10 03:40:09;;;;;;;3.35;2.20;;;18.40;73.50;;;;;;5987013;24;20144;-87
2022/11/10 03:42:43;;;;;;;3.67;2.40;;;18.40;73.80;;;;;;5986978;23;20226;-86
2022/11/10 03:45:14;;;;;;;3.53;2.55;;;18.40;73.60;;;;;;5940309;24;20227;-86
2022/11/10 03:47:43;;;;;;;3.63;2.60;;;18.40;73.60;;;;;;5939788;23;20187;-86
2022/11/10 03:50:09;;;;;;;2.65;2.40;;;18.40;73.60;;;;;;5986283;23;20163;-86
2022/11/10 03:52:41;;;;;;;4.80;2.53;;;18.40;73.30;;;;;;5988546;23;20194;-85
2022/11/10 03:55:15;;;;;;;2.88;2.40;;;18.40;73.60;;;;;;5941999;24;20488;-86
2022/11/10 03:57:41;;;;;;;4.25;2.60;;;18.40;73.60;;;;;;5918930;24;20163;-86
2022/11/10 04:00:12;;;;;;;3.47;2.47;;;18.40;73.40;;;;;;5988657;24;20135;-86
2022/11/10 04:02:38;;;;;;;3.60;2.45;;;18.50;73.90;;;;;;5941246;24;20262;-86
2022/11/10 04:10:40;;;;;;;4.72;2.40;;;18.30;73.40;;;;;;5988157;24;20142;-86
2022/11/10 04:15:51;;;;;;;4.22;2.42;;;18.40;73.80;;;;;;5988623;24;20136;-86
2022/11/10 04:18:23;;;;;;;2.83;2.42;;;18.40;73.70;;;;;;5989233;24;20504;-86
2022/11/10 04:20:51;;;;;;;4.57;2.65;;;18.40;73.50;;;;;;5942719;23;20163;-86
2022/11/10 04:28:52;;;;;;;2.60;2.33;;;18.40;73.80;;;;;;5967892;24;20496;-86
2022/11/10 04:31:23;;;;;;;3.70;2.50;;;18.40;73.90;;;;;;5989843;23;20230;-87
2022/11/10 04:33:54;;;;;;;3.90;2.42;;;18.40;73.60;;;;;;5965763;24;20219;-86
2022/11/10 04:36:21;;;;;;;3.65;2.38;;;18.40;73.60;;;;;;5942649;24;20653;-86
2022/11/10 04:38:48;;;;;;;2.80;2.38;;;18.40;73.40;;;;;;5993116;23;20144;-86
2022/11/10 04:41:18;;;;;;;3.97;2.72;;;18.40;73.50;;;;;;5995088;24;20577;-86
2022/11/10 04:43:47;;;;;;;2.25;2.08;;;18.40;73.40;;;;;;5949278;24;20228;-86
2022/11/10 04:46:26;;;;;;;2.78;2.42;;;18.40;73.60;;;;;;5971579;24;20608;-86
2022/11/10 04:48:52;;;;;;;4.20;2.35;;;18.40;73.50;;;;;;5972091;24;20159;-85
2022/11/10 04:51:18;;;;;;;3.97;2.50;;;18.40;73.70;;;;;;5991228;23;20231;-86
2022/11/10 04:53:50;;;;;;;2.95;2.58;;;18.40;73.50;;;;;;5991597;23;20148;-86
2022/11/10 04:56:17;;;;;;;3.90;2.95;;;18.40;73.60;;;;;;5943642;23;20164;-86
2022/11/10 04:58:49;;;;;;;3.85;2.53;;;18.40;73.60;;;;;;5990679;24;20155;-86
2022/11/10 05:01:17;;;;;;;5.05;2.60;;;18.40;73.40;;;;;;5918116;24;20246;-86
2022/11/10 05:03:43;;;;;;;3.05;2.35;;;18.40;73.60;;;;;;5990890;23;20572;-85
2022/11/10 05:06:09;;;;;;;3.55;2.42;;;18.40;73.80;;;;;;5991094;24;20162;-86
2022/11/10 05:08:41;;;;;;;2.42;2.20;;;18.30;73.60;;;;;;5990380;24;20135;-86
2022/11/10 05:11:07;;;;;;;2.80;2.47;;;18.40;73.50;;;;;;5964640;24;20211;-85
2022/11/10 05:13:37;;;;;;;3.25;2.60;;;18.40;73.60;;;;;;5992654;24;20136;-86
2022/11/10 05:16:03;;;;;;;2.85;2.40;;;18.30;73.40;;;;;;5941434;24;20155;-86
2022/11/10 05:18:29;;;;;;;3.97;2.50;;;18.40;73.80;;;;;;5987981;24;20163;-86
2022/11/10 05:20:55;;;;;;;2.92;2.33;;;18.30;73.60;;;;;;5964320;24;20250;-86
2022/11/10 05:26:13;;;;;;;3.92;2.47;;;18.40;73.60;;;;;;5966681;24;20160;-86
2022/11/10 05:28:40;;;;;;;2.65;2.45;;;18.40;73.70;;;;;;5989060;23;20174;-86
2022/11/10 05:31:10;;;;;;;5.15;2.60;;;18.30;73.60;;;;;;5988554;23;20166;-86
2022/11/10 05:33:36;;;;;;;2.67;2.20;;;18.30;73.60;;;;;;5964042;24;20160;-86
2022/11/10 05:36:03;;;;;;;2.90;2.28;;;18.30;73.50;;;;;;5964701;24;20162;-86
2022/11/10 05:38:33;;;;;;;3.00;2.40;;;18.30;73.70;;;;;;5987412;24;20136;-85
2022/11/10 05:40:59;;;;;;;2.70;2.50;;;18.40;73.60;;;;;;5940942;24;20160;-86
2022/11/10 05:43:29;;;;;;;2.75;2.40;;;18.40;73.60;;;;;;5988053;24;20234;-86
2022/11/10 05:45:55;;;;;;;2.97;2.30;;;18.40;73.60;;;;;;5940492;24;20337;-86
2022/11/10 05:48:25;;;;;;;2.78;2.25;;;18.40;73.60;;;;;;5988405;24;20214;-86
2022/11/10 05:50:51;;;;;;;3.90;2.50;;;18.30;73.80;;;;;;5944620;23;20895;-85
2022/11/10 05:53:17;;;;;;;3.20;2.42;;;18.30;73.80;;;;;;5992108;23;20136;-85
2022/11/10 05:55:43;;;;;;;3.25;2.55;;;18.30;72.50;;;;;;5992165;23;20135;-86
2022/11/10 05:58:09;;;;;;;2.45;2.10;;;18.30;73.80;;;;;;5992132;23;20599;-86
2022/11/10 06:00:35;;;;;;;2.58;2.20;;;18.30;72.70;;;;;;5992755;23;20507;-86
2022/11/10 06:03:03;;;;;;;2.53;2.33;;;18.30;72.30;;;;;;5991914;23;20218;-86
2022/11/10 06:05:30;;;;;;;2.55;2.33;;;18.30;72.70;;;;;;5992081;23;20512;-86
2022/11/10 06:07:56;;;;;;;3.50;2.50;;;18.30;72.90;;;;;;5992174;23;20186;-86
2022/11/10 06:10:22;;;;;;;3.65;2.33;;;18.30;73.00;;;;;;5948002;23;20162;-86
2022/11/10 06:12:48;;;;;;;3.33;2.30;;;18.30;73.50;;;;;;5992834;23;20191;-85
2022/11/10 06:15:18;;;;;;;4.45;2.60;;;18.30;73.30;;;;;;5993983;23;20139;-85
2022/11/10 06:17:44;;;;;;;2.50;2.30;;;18.40;74.10;;;;;;5923503;23;20167;-86
2022/11/10 06:20:10;;;;;;;3.45;2.35;;;18.40;72.90;;;;;;5995010;23;20237;-86
2022/11/10 06:22:42;;;;;;;2.90;2.22;;;18.40;72.40;;;;;;5949197;23;20551;-86
2022/11/10 06:25:08;;;;;;;3.25;2.30;;;18.40;72.50;;;;;;5948186;23;20158;-85
2022/11/10 06:27:37;;;;;;;3.05;2.05;;;18.40;73.00;;;;;;5972822;23;20213;-86
2022/11/10 06:30:03;;;;;;;3.85;2.60;;;18.40;72.40;;;;;;5972666;23;20131;-86
2022/11/10 06:32:29;;;;;;;3.45;2.13;;;18.40;73.00;;;;;;5970344;23;20150;-86
2022/11/10 06:34:55;;;;;;;2.83;2.53;;;18.50;72.10;;;;;;5970923;23;20356;-85
2022/11/10 06:37:21;;;;;;;3.40;2.45;;;18.50;72.90;;;;;;5992581;23;20151;-86
2022/11/10 06:39:46;;;;;;;2.80;2.45;;;18.50;72.90;;;;;;5992330;23;20150;-85
2022/11/10 06:42:13;;;;;;;2.35;2.15;;;18.50;72.70;;;;;;6017797;23;20170;-85
2022/11/10 06:44:43;;;;;;;2.17;1.98;;;18.50;72.70;;;;;;5970042;23;20151;-85
2022/11/10 06:47:08;;;;;;;2.50;2.10;;;18.50;72.30;;;;;;5969615;23;20190;-86
2022/11/10 06:49:35;;;;;;;3.95;2.25;;;18.50;72.80;;;;;;5969483;23;20467;-85
2022/11/10 06:52:01;;;;;;;2.95;2.20;;;18.40;72.20;;;;;;5941549;24;20287;-85
2022/11/10 06:54:30;;;;;;;3.00;2.40;;;18.50;72.40;;;;;;5985221;23;20147;-85
2022/11/10 06:56:57;;;;;;;3.22;2.05;;;18.50;72.50;;;;;;5960418;24;20170;-86
2022/11/10 06:59:23;;;;;;;3.25;2.00;;;18.40;72.40;;;;;;5986350;24;20183;-85
2022/11/10 07:01:50;;;;;;;2.75;2.30;;;18.50;72.50;;;;;;5985139;24;20583;-85
2022/11/10 07:04:16;;;;;;;2.47;2.20;;;18.50;72.40;;;;;;5962039;24;20190;-85
2022/11/10 07:06:42;;;;;;;3.72;2.30;;;18.50;72.50;;;;;;5961874;24;20612;-85
2022/11/10 07:09:12;;;;;;;3.58;2.50;;;18.50;73.40;;;;;;5985686;24;20136;-86
2022/11/10 07:11:38;;;;;;;2.38;1.90;;;18.40;72.10;;;;;;5938870;24;20234;-86
2022/11/10 07:14:04;;;;;;;2.63;2.20;;;18.50;71.90;;;;;;5962661;24;20589;-85
2022/11/10 07:16:34;;;;;;;2.38;2.17;;;18.60;72.40;;;;;;5987251;24;20235;-85
2022/11/10 07:19:00;;;;;;;2.50;2.30;;;18.40;72.20;;;;;;5965741;24;20175;-85
2022/11/10 07:21:26;;;;;;;3.30;2.10;;;18.50;72.10;;;;;;5970094;24;20159;-85
2022/11/10 07:23:52;;;;;;;3.05;2.08;;;18.50;72.10;;;;;;5967792;24;20162;-85
2022/11/10 07:26:18;;;;;;;1.98;1.75;;;18.50;72.00;;;;;;5989472;23;20172;-85
2022/11/10 07:28:50;;;;;;;2.53;1.90;;;18.50;71.80;;;;;;5993735;24;20639;-85
2022/11/10 07:31:19;;;;;;;3.53;2.30;;;18.50;71.90;;;;;;5971754;23;20191;-85
2022/11/10 07:33:46;;;;;;;2.03;1.83;;;18.50;72.50;;;;;;5946968;24;20158;-85
2022/11/10 07:36:15;;;;;;;2.25;2.05;;;18.50;72.10;;;;;;5972128;24;20151;-85
2022/11/10 07:38:43;;;;;;;2.40;2.20;;;18.50;71.70;;;;;;5948783;24;20155;-84
2022/11/10 07:41:14;;;;;;;2.60;2.10;;;18.50;71.90;;;;;;5948107;24;20152;-85
2022/11/10 07:43:42;;;;;;;3.38;2.35;;;18.50;72.40;;;;;;5923929;24;20156;-86
2022/11/10 07:46:11;;;;;;;2.75;2.10;;;18.50;72.40;;;;;;5968038;24;20174;-85
2022/11/10 07:48:42;;;;;;;2.08;1.88;;;18.50;72.20;;;;;;5969559;24;20156;-84
2022/11/10 07:51:08;;;;;;;2.58;2.13;;;18.50;72.40;;;;;;5947757;24;20195;-85
2022/11/10 07:53:40;;;;;;;3.88;2.42;;;18.60;72.10;;;;;;5995162;24;20174;-85
2022/11/10 07:56:13;;;;;;;2.20;2.00;;;18.60;71.50;;;;;;5947331;24;20213;-84
2022/11/10 07:58:45;;;;;;;3.72;2.20;;;18.60;71.20;;;;;;5950512;23;20155;-85
2022/11/10 08:01:22;;;;;;;2.08;1.80;;;18.60;72.00;;;;;;5972599;23;20166;-86
2022/11/10 08:03:52;;;;;;;2.47;2.10;;;18.60;71.00;;;;;;5973525;24;20188;-85
2022/11/10 08:06:19;;;;;;;2.53;2.08;;;18.60;72.10;;;;;;5950749;24;20163;-84
2022/11/10 08:08:52;;;;;;;2.25;2.05;;;18.60;70.80;;;;;;5974329;23;20162;-85
2022/11/10 08:11:50;;;;;;;3.05;2.28;;;18.60;71.80;;;;;;5975489;23;20159;-85
2022/11/10 08:14:27;;;;;;;4.32;2.20;;;18.60;71.20;;;;;;5912295;24;20158;-85
2022/11/10 08:16:54;;;;;;;3.25;2.28;;;18.60;71.80;;;;;;5872453;24;20183;-83
2022/11/10 08:19:26;;;;;;;2.80;2.40;;;18.60;71.60;;;;;;5869214;24;20161;-84
2022/11/10 08:21:53;;;;;;;2.20;2.00;;;18.50;71.80;;;;;;5870155;24;20158;-85
2022/11/10 08:24:26;;;;;;;2.40;2.20;;;18.60;71.60;;;;;;5869247;24;20161;-84
2022/11/10 08:26:58;;;;;;;2.38;2.17;;;18.60;70.80;;;;;;5890034;24;20234;-86
2022/11/10 08:29:44;;;;;;;3.80;2.00;;;18.60;71.20;;;;;;5842372;24;20173;-86
2022/11/10 08:32:11;;;;;;;2.00;1.80;;;18.60;71.40;;;;;;5890640;24;20153;-85
2022/11/10 08:34:47;;;;;;;2.28;1.90;;;18.70;71.70;;;;;;5894458;24;20203;-85
2022/11/10 08:37:17;;;;;;;2.78;2.00;;;18.70;70.90;;;;;;5872027;24;20164;-84
2022/11/10 08:40:14;;;;;;;4.68;2.35;;;18.70;71.00;;;;;;5902076;24;20167;-83
2022/11/10 08:43:08;;;;;;;6.15;2.45;;;18.70;71.00;;;;;;5925773;24;20168;-84
2022/11/10 08:46:10;;;;;;;8.10;2.22;;;18.70;71.10;;;;;;5975240;24;20179;-86
2022/11/10 08:56:13;;;;;;;5.60;2.40;;;18.70;71.30;;;;;;5890259;24;20161;-85
2022/11/10 08:59:24;;;;;;;8.32;2.17;;;18.70;71.30;;;;;;5873000;24;20161;-87
2022/11/10 09:02:15;;;;;;;5.60;1.90;;;18.70;71.50;;;;;;5891395;24;20146;-85
2022/11/10 09:04:47;;;;;;;5.97;2.30;;;18.70;71.40;;;;;;5891240;24;20229;-84
2022/11/10 09:08:05;;;;;;;5.10;2.03;;;18.70;71.50;;;;;;5869174;24;20265;-85
2022/11/10 09:11:14;;;;;;;3.80;1.90;;;18.70;70.90;;;;;;5901952;24;20558;-86
2022/11/10 09:13:48;;;;;;;4.80;2.17;;;18.70;70.30;;;;;;5837063;24;20173;-85
2022/11/10 09:16:17;;;;;;;6.03;2.10;;;18.70;70.50;;;;;;5804636;24;20182;-85
2022/11/10 09:19:23;;;;;;;3.10;1.77;;;18.80;70.60;;;;;;5810632;24;20198;-85
2022/11/10 09:22:06;;;;;;;3.30;2.28;;;18.80;70.50;;;;;;5809941;24;20220;-86
2022/11/10 09:25:17;;;;;;;7.32;2.20;;;18.80;70.40;;;;;;5809369;24;20171;-84
2022/11/10 09:28:07;;;;;;;6.13;2.30;;;18.80;70.20;;;;;;5757166;24;20257;-85
2022/11/10 09:30:58;;;;;;;4.15;2.45;;;18.80;70.50;;;;;;5793558;24;20163;-85
2022/11/10 09:33:51;;;;;;;7.00;2.30;;;18.80;70.70;;;;;;5835573;24;20229;-85
2022/11/10 09:36:25;;;;;;;7.75;2.30;;;18.80;70.10;;;;;;5841351;24;20189;-86
2022/11/10 09:39:15;;;;;;;8.52;2.33;;;18.80;72.10;;;;;;5840815;24;20235;-86
2022/11/10 09:42:26;;;;;;;4.30;2.15;;;18.80;71.00;;;;;;5807832;24;20160;-85
2022/11/10 09:44:58;;;;;;;4.22;2.13;;;18.80;71.00;;;;;;5782570;24;20266;-85
2022/11/10 09:47:56;;;;;;;;;;;;;;;;;;;;;
2022/11/10 09:50:55;;;;;;;3.83;2.40;;;18.80;70.70;;;;;;5789499;24;20164;-85
2022/11/10 09:53:56;;;;;;;4.38;2.63;;;18.80;70.70;;;;;;5770566;24;20179;-85
2022/11/10 09:56:38;;;;;;;3.65;2.40;;;18.90;70.60;;;;;;5783890;24;20259;-85
2022/11/10 09:59:32;;;;;;;;;;;;;;;;;;;;;
2022/11/10 10:02:44;;;;;;;7.30;2.45;;;18.90;70.90;;;;;;5823776;24;20187;-85
2022/11/10 10:06:01;;;;;;;5.50;2.40;;;18.90;70.10;;;;;;5808538;24;20164;-85
2022/11/10 10:09:12;;;;;;;5.88;2.20;;;18.90;71.00;;;;;;5802891;24;20200;-85
2022/11/10 10:12:23;;;;;;;5.22;2.20;;;19.00;70.70;;;;;;5753381;24;20233;-85
2022/11/10 10:15:34;;;;;;;7.35;2.22;;;18.90;70.60;;;;;;5749859;24;20167;-85
2022/11/10 10:18:55;;;;;;;;;;;;;;;;;;;;;
2022/11/10 10:22:05;;;;;;;5.95;2.08;;;18.90;70.70;;;;;;5767193;24;20176;-85
2022/11/10 10:24:39;;;;;;;5.70;2.33;;;19.00;70.20;;;;;;5754942;24;20224;-85
2022/11/10 10:28:10;;;;;;;7.63;2.42;;;19.00;70.30;;;;;;5807182;24;20664;-84
2022/11/10 10:31:18;;;;;;;5.07;2.13;;;18.90;70.10;;;;;;5755092;24;20157;-84
2022/11/10 10:34:38;;;;;;;6.22;2.10;;;19.00;69.80;;;;;;5689599;25;20182;-85
2022/11/10 10:37:32;;;;;;;4.32;1.90;;;19.00;69.70;;;;;;5687673;25;20167;-84
2022/11/10 10:40:20;;;;;;;9.35;2.35;;;18.90;70.40;;;;;;5653980;25;20235;-85
2022/11/10 10:43:05;;;;;;;5.22;2.63;;;18.90;69.70;;;;;;5657921;25;20171;-84
2022/11/10 10:46:01;;;;;;;4.50;2.13;;;19.00;70.80;;;;;;5681795;25;20180;-86
2022/11/10 10:48:35;;;;;;;5.00;2.00;;;19.00;70.00;;;;;;5661093;25;20200;-85
2022/11/10 10:51:41;;;;;;;6.18;2.22;;;18.90;70.20;;;;;;5633888;25;20248;-85
2022/11/10 10:57:29;;;;;;;4.32;2.10;;;18.90;69.90;;;;;;5631789;25;20171;-87
2022/11/10 11:00:24;;;;;;;3.33;1.90;;;18.90;70.10;;;;;;5647747;25;20172;-84
2022/11/10 11:03:11;;;;;;;4.93;2.45;;;19.00;69.70;;;;;;5627158;25;20176;-84
2022/11/10 11:06:03;;;;;;;5.07;2.33;;;18.90;70.70;;;;;;5650192;25;20240;-85
2022/11/10 11:08:42;;;;;;;4.80;2.28;;;18.90;69.70;;;;;;5651699;25;20224;-85
2022/11/10 11:14:25;;;;;;;4.80;2.25;;;19.00;70.20;;;;;;5673193;25;20167;-87
2022/11/10 11:17:38;;;;;;;;;;;;;;;;;;;;;
2022/11/10 11:20:58;;;;;;;3.08;2.08;;;18.90;70.50;;;;;;5763437;24;20145;-85
2022/11/10 11:24:15;;;;;;;;;;;;;;;;;;;;;
2022/11/10 11:27:11;;;;;;;4.38;1.92;;;18.90;70.70;;;;;;5763734;24;20264;-86
2022/11/10 11:30:12;;;;;;;2.97;1.70;;;18.90;70.40;;;;;;5805652;24;20165;-83
2022/11/10 11:33:00;;;;;;;4.38;1.77;;;18.90;69.90;;;;;;5738017;25;20181;-86
2022/11/10 11:35:48;;;;;;;4.78;2.10;;;18.90;69.40;;;;;;5737707;25;20157;-86
2022/11/10 11:38:51;;;;;;;7.35;2.30;;;18.90;69.70;;;;;;5730682;25;20171;-85
2022/11/10 11:41:32;;;;;;;9.35;2.47;;;18.90;69.40;;;;;;5711155;25;20168;-85
2022/11/10 11:44:31;;;;;;;7.45;2.40;;;18.90;70.00;;;;;;5685786;25;20162;-85
2022/11/10 11:47:17;;;;;;;7.63;2.30;;;18.90;69.40;;;;;;5724828;25;20258;-85
2022/11/10 11:50:11;;;;;;;4.75;2.10;;;19.00;69.70;;;;;;5732689;24;20185;-85
2022/11/10 11:52:54;;;;;;;5.00;2.30;;;18.90;69.70;;;;;;5870550;24;20201;-85
2022/11/10 11:55:41;;;;;;;6.38;2.22;;;18.90;70.10;;;;;;5889142;24;20161;-82
2022/11/10 11:58:25;;;;;;;3.55;1.98;;;18.90;70.30;;;;;;5876662;24;20631;-84
2022/11/10 12:01:21;;;;;;;5.30;2.25;;;18.90;69.70;;;;;;5815678;24;20206;-84
2022/11/10 12:04:21;;;;;;;4.07;1.90;;;18.90;69.50;;;;;;5819323;24;20182;-84
2022/11/10 12:07:07;;;;;;;5.35;2.17;;;19.00;70.10;;;;;;5858913;24;20503;-83
2022/11/10 12:09:48;;;;;;;6.10;2.30;;;19.00;69.70;;;;;;5861077;24;20162;-84
2022/11/10 12:12:36;;;;;;;5.13;2.17;;;18.90;70.10;;;;;;5915240;24;20185;-86
2022/11/10 12:15:32;;;;;;;9.40;2.30;;;19.00;70.40;;;;;;5939507;24;20156;-87
2022/11/10 12:18:18;;;;;;;5.20;2.00;;;18.90;70.30;;;;;;5938951;24;20209;-85
2022/11/10 12:21:26;;;;;;;4.45;2.13;;;18.90;70.10;;;;;;5939759;24;20156;-86
2022/11/10 12:24:13;;;;;;;6.50;2.40;;;18.90;70.20;;;;;;5912058;24;20288;-84
2022/11/10 12:27:01;;;;;;;5.07;2.17;;;19.00;70.40;;;;;;5918666;24;20211;-85
2022/11/10 12:30:26;;;;;;;5.88;2.55;;;18.90;70.30;;;;;;5902794;24;20155;-85
2022/11/10 12:33:31;;;;;;;5.15;2.40;;;18.90;70.30;;;;;;5940500;24;20677;-85
2022/11/10 12:37:06;;;;;;;4.25;2.20;;;19.00;70.10;;;;;;5990128;23;20510;-85
2022/11/10 12:54:34;;;;;;;4.10;2.20;;;19.00;68.70;;;;;;6037338;23;20767;-86
2022/11/10 12:57:32;;;;;;;3.53;2.15;;;19.00;68.40;;;;;;6024500;23;20579;-84
2022/11/10 13:00:24;;;;;;;4.90;2.10;;;19.10;68.60;;;;;;5945639;23;20159;-84
2022/11/10 13:03:48;;;;;;;3.75;1.95;;;19.10;68.90;;;;;;6008832;23;20147;-84
2022/11/10 13:06:58;;;;;;;4.55;2.33;;;19.10;68.20;;;;;;5930031;24;20160;-85
2022/11/10 13:13:36;;;;;;;3.08;2.00;;;19.00;68.00;;;;;;5809624;24;20194;-84
2022/11/10 13:24:10;;;;;;;6.75;2.00;;;19.10;69.00;;;;;;5715529;25;20177;-83
2022/11/10 13:27:14;;;;;;;6.43;2.33;;;19.10;68.70;;;;;;5679808;25;20167;-82
2022/11/10 13:29:54;;;;;;;3.72;2.00;;;19.10;68.10;;;;;;5671033;25;20253;-86
2022/11/10 13:32:32;;;;;;;3.88;2.22;;;19.10;69.40;;;;;;5710710;25;20161;-87
2022/11/10 13:35:44;;;;;;;6.35;2.13;;;19.10;69.60;;;;;;5732650;25;20163;-84
2022/11/10 13:38:55;;;;;;;8.10;2.45;;;19.00;69.20;;;;;;5691860;25;20168;-83
2022/11/10 13:41:29;;;;;;;4.10;1.77;;;19.00;69.00;;;;;;5752347;24;20165;-83
2022/11/10 13:44:18;;;;;;;5.35;2.03;;;19.00;68.20;;;;;;5791546;24;20164;-85
2022/11/10 13:47:33;;;;;;;3.47;2.05;;;19.10;69.00;;;;;;5817349;24;20207;-85
2022/11/10 13:50:34;;;;;;;6.95;2.10;;;19.10;69.20;;;;;;5837310;24;20244;-86
2022/11/10 13:53:42;;;;;;;4.20;2.30;;;19.10;69.00;;;;;;5869463;24;20630;-85
2022/11/10 13:56:52;;;;;;;4.70;2.10;;;19.10;69.50;;;;;;5833686;24;20210;-88
2022/11/10 13:59:31;;;;;;;5.82;2.10;;;19.10;69.30;;;;;;5860706;24;20164;-85
2022/11/10 14:12:57;;;;;;;4.55;2.03;;;19.10;68.80;;;;;;5703572;25;20158;-88
2022/11/10 14:22:36;;;;;;;3.33;2.20;;;19.20;68.90;;;;;;5576162;25;20166;-86
2022/11/10 14:32:41;;;;;;;3.63;2.03;;;19.20;70.10;;;;;;5489308;26;20677;-88
2022/11/10 14:35:58;;;;;;;6.63;2.10;;;19.20;70.40;;;;;;5507597;26;20243;-83
2022/11/10 14:39:08;;;;;;;5.80;2.10;;;19.20;69.80;;;;;;5526873;26;20191;-81
2022/11/10 14:45:18;;;;;;;4.22;2.08;;;19.20;69.20;;;;;;5551901;25;20188;-87
2022/11/10 14:48:03;;;;;;;5.30;2.20;;;19.20;70.20;;;;;;5541621;25;20295;-86
2022/11/10 14:50:45;;;;;;;;;;;;;;;;;;;;;
2022/11/10 14:57:18;;;;;;;5.25;2.20;;;19.20;69.80;;;;;;5570568;25;20218;-88
2022/11/10 15:00:18;;;;;;;4.28;2.10;;;19.20;70.20;;;;;;5594885;25;20177;-88
2022/11/10 15:02:53;;;;;;;3.85;2.20;;;19.20;69.60;;;;;;5597863;25;20654;-89
2022/11/10 15:08:58;;;;;;;4.15;2.28;;;19.20;69.60;;;;;;5597956;25;20177;-84
2022/11/10 15:11:51;;;;;;;5.13;2.20;;;19.20;71.00;;;;;;5606552;25;20169;-83
2022/11/10 15:14:38;;;;;;;2.85;1.83;;;19.20;69.10;;;;;;5622933;25;20165;-83
2022/11/10 15:17:10;;;;;;;4.60;2.10;;;19.20;69.00;;;;;;5652151;25;20195;-83
2022/11/10 15:19:38;;;;;;;3.97;2.10;;;19.20;69.20;;;;;;5610717;25;20172;-83
2022/11/10 15:22:28;;;;;;;;;;;;;;;;;;;;;
2022/11/10 15:25:25;;;;;;;4.53;2.00;;;19.10;69.20;;;;;;5718274;25;20186;-84
2022/11/10 15:28:32;;;;;;;2.63;2.10;;;19.10;69.60;;;;;;5681061;25;20194;-83